Time;durP1;ratioP1;P1;durP2;ratioP2;P2;SDS_P1;SDS_P2;PMS_P1;PMS_P2;Temp;Humidity;BMP_temperature;BMP_pressure;BME280_temperature;BME280_humidity;BME280_pressure;Samples;Min_cycle;Max_cycle;Signal;HPM_P1;HPM_P2
2023/12/15 00:00:16;;;;;;;0.65;0.65;;;;;;;4.46;72.94;93676.78;5016734;28;20066;-78
2023/12/15 00:02:42;;;;;;;2.20;0.68;;;;;;;4.61;72.35;93674.78;5007681;28;20037;-78
2023/12/15 00:05:08;;;;;;;0.60;0.60;;;;;;;4.70;71.48;93677.59;5016141;28;20034;-79
2023/12/15 00:07:33;;;;;;;2.47;1.02;;;;;;;4.76;72.11;93678.34;5005925;28;20504;-79
2023/12/15 00:09:59;;;;;;;0.68;0.68;;;;;;;4.81;71.94;93673.00;5017696;28;20041;-79
2023/12/15 00:12:24;;;;;;;0.60;0.60;;;;;;;4.86;70.74;93643.97;5020097;28;20576;-80
2023/12/15 00:14:50;;;;;;;0.60;0.60;;;;;;;4.95;70.28;93676.53;5000671;28;20054;-79
2023/12/15 00:17:16;;;;;;;0.80;0.80;;;;;;;4.72;71.37;93685.22;5017005;28;20080;-79
2023/12/15 00:19:41;;;;;;;0.73;0.70;;;;;;;4.48;71.37;93625.41;5016586;28;20032;-78
2023/12/15 00:22:07;;;;;;;1.00;1.00;;;;;;;4.94;70.49;93683.66;5000468;28;20048;-79
2023/12/15 00:24:32;;;;;;;0.80;0.80;;;;;;;4.96;70.46;93691.31;5015094;28;20030;-80
2023/12/15 00:26:58;;;;;;;1.25;1.00;;;;;;;4.69;70.18;93645.22;5018251;28;20654;-80
2023/12/15 00:29:25;;;;;;;0.60;0.60;;;;;;;4.85;70.56;93690.63;5005264;28;20472;-80
2023/12/15 00:31:50;;;;;;;1.95;0.80;;;;;;;4.91;71.11;93702.69;5015888;28;20059;-79
2023/12/15 00:34:16;;;;;;;0.70;0.70;;;;;;;5.01;71.00;93694.66;5014301;28;20752;-79
2023/12/15 00:36:41;;;;;;;0.60;0.60;;;;;;;5.12;69.82;93687.44;5002816;28;20044;-79
2023/12/15 00:39:10;;;;;;;2.05;1.10;;;;;;;5.10;70.19;93702.72;5012219;28;20101;-78
2023/12/15 00:41:36;;;;;;;0.75;0.70;;;;;;;4.83;71.10;93686.72;5019013;28;20516;-79
2023/12/15 00:44:04;;;;;;;0.60;0.60;;;;;;;4.92;71.83;93714.00;5018658;28;20059;-79
2023/12/15 00:46:31;;;;;;;0.60;0.60;;;;;;;4.90;71.72;93703.75;5008559;28;20025;-81
2023/12/15 00:48:57;;;;;;;0.70;0.70;;;;;;;4.92;71.88;93716.66;5002499;28;20041;-79
2023/12/15 00:51:24;;;;;;;0.90;0.90;;;;;;;4.87;72.09;93714.84;5020870;28;20079;-80
2023/12/15 00:53:52;;;;;;;0.93;0.93;;;;;;;5.10;72.05;93723.81;5002071;28;20513;-78
2023/12/15 00:56:18;;;;;;;1.00;1.00;;;;;;;5.08;70.85;93723.34;5020844;28;20041;-79
2023/12/15 00:58:43;;;;;;;1.05;1.05;;;;;;;5.08;70.85;93694.34;5013744;28;20033;-81
2023/12/15 01:01:09;;;;;;;1.58;1.48;;;;;;;5.09;70.74;93736.22;5019441;28;20041;-81
2023/12/15 01:03:34;;;;;;;0.70;0.70;;;;;;;4.56;72.49;93713.56;5015514;28;20068;-79
2023/12/15 01:06:01;;;;;;;1.95;0.70;;;;;;;4.78;73.30;93726.28;5012530;28;20129;-79
2023/12/15 01:08:27;;;;;;;0.95;0.93;;;;;;;5.06;71.61;93738.63;4997326;28;20037;-78
2023/12/15 01:10:52;;;;;;;1.25;1.20;;;;;;;4.80;70.89;93687.25;5013850;28;20480;-78
2023/12/15 01:13:18;;;;;;;2.60;1.83;;;;;;;4.94;71.43;93720.56;5016968;28;20018;-80
2023/12/15 01:15:43;;;;;;;1.33;1.20;;;;;;;4.99;71.11;93723.16;4999114;28;20050;-79
2023/12/15 01:18:08;;;;;;;2.40;2.20;;;;;;;4.78;71.97;93713.09;4993599;28;20108;-80
2023/12/15 01:20:34;;;;;;;1.80;1.65;;;;;;;4.86;72.69;93723.03;4997345;28;20041;-80
2023/12/15 01:22:59;;;;;;;3.13;2.60;;;;;;;5.07;71.43;93725.19;4998025;28;20821;-80
2023/12/15 01:25:25;;;;;;;1.63;1.52;;;;;;;4.63;72.36;93703.50;4996715;28;20026;-79
2023/12/15 01:27:50;;;;;;;1.40;1.30;;;;;;;4.95;71.97;93747.69;4994916;28;20070;-79
2023/12/15 01:30:16;;;;;;;1.65;1.55;;;;;;;5.00;72.16;93750.28;4995763;28;20038;-79
2023/12/15 01:32:42;;;;;;;1.30;1.20;;;;;;;4.60;72.03;93731.16;5000622;28;20068;-79
2023/12/15 01:35:07;;;;;;;1.70;1.50;;;;;;;4.57;73.56;93730.94;5004501;28;20034;-80
2023/12/15 01:37:33;;;;;;;2.13;1.77;;;;;;;4.98;72.52;93744.53;4995941;28;20021;-79
2023/12/15 01:39:58;;;;;;;3.50;2.78;;;;;;;4.99;71.50;93744.22;4995268;28;20206;-79
2023/12/15 01:42:26;;;;;;;3.90;2.95;;;;;;;4.82;72.46;93743.88;4997991;28;20030;-79
2023/12/15 01:44:52;;;;;;;5.18;3.50;;;;;;;4.86;72.21;93744.91;4998659;28;20044;-78
2023/12/15 01:47:18;;;;;;;3.65;2.70;;;;;;;4.54;71.19;93689.38;4998758;28;20062;-79
2023/12/15 01:49:46;;;;;;;7.30;4.20;;;;;;;3.76;71.84;93600.00;5003066;28;20463;-80
2023/12/15 01:52:12;;;;;;;13.57;7.85;;;;;;;4.57;73.65;93746.75;5003579;28;20038;-79
2023/12/15 01:54:37;;;;;;;25.98;16.27;;;;;;;4.73;73.11;93761.38;4995195;28;20134;-79
2023/12/15 01:57:04;;;;;;;9.63;6.03;;;;;;;4.80;72.60;93753.91;4993954;28;20026;-80
2023/12/15 01:59:51;;;;;;;22.13;11.77;;;;;;;4.86;72.57;93755.44;5000304;28;20141;-80
2023/12/15 02:02:17;;;;;;;12.02;7.10;;;;;;;4.86;72.91;93760.72;4998106;28;20038;-79
2023/12/15 02:04:43;;;;;;;8.43;5.50;;;;;;;4.65;73.15;93730.34;5001557;28;20029;-79
2023/12/15 02:07:08;;;;;;;12.30;7.85;;;;;;;4.79;73.38;93751.56;4998535;28;20397;-80
2023/12/15 02:09:38;;;;;;;10.23;6.22;;;;;;;4.74;72.95;93756.88;4993918;28;20030;-79
2023/12/15 02:12:04;;;;;;;10.40;5.95;;;;;;;4.69;72.98;93755.09;4997176;28;20469;-78
2023/12/15 02:14:30;;;;;;;8.18;4.93;;;;;;;4.69;73.36;93776.16;5001189;28;20034;-79
2023/12/15 02:16:55;;;;;;;5.25;3.45;;;;;;;4.43;74.71;93774.78;5013299;28;20076;-79
2023/12/15 02:19:21;;;;;;;12.15;7.93;;;;;;;4.42;74.90;93781.91;5004688;28;20116;-78
2023/12/15 02:21:46;;;;;;;5.75;4.25;;;;;;;4.49;74.69;93778.97;5017994;28;20045;-80
2023/12/15 02:24:12;;;;;;;4.28;2.90;;;;;;;4.51;74.23;93784.72;4997035;28;20034;-79
2023/12/15 02:26:37;;;;;;;5.72;4.13;;;;;;;4.33;75.05;93798.56;5012283;28;20118;-80
2023/12/15 02:29:03;;;;;;;9.93;7.40;;;;;;;4.30;75.23;93793.84;5016497;28;20571;-79
2023/12/15 02:31:28;;;;;;;7.38;5.70;;;;;;;4.23;75.26;93788.84;5018162;28;20025;-79
2023/12/15 02:33:54;;;;;;;20.90;11.45;;;;;;;4.27;75.00;93793.28;5011814;28;20033;-81
2023/12/15 02:36:21;;;;;;;10.02;6.57;;;;;;;4.26;75.47;93804.88;5002052;28;20037;-80
2023/12/15 02:38:46;;;;;;;6.97;5.47;;;;;;;4.42;74.69;93796.91;4996832;28;20671;-81
2023/12/15 02:41:12;;;;;;;5.43;4.53;;;;;;;4.53;74.37;93804.47;5013633;28;20117;-80
2023/12/15 02:43:38;;;;;;;5.50;4.97;;;;;;;4.35;75.23;93805.13;5014185;28;20141;-80
2023/12/15 02:46:05;;;;;;;13.90;10.98;;;;;;;4.46;75.40;93808.47;4997478;28;20117;-79
2023/12/15 02:48:30;;;;;;;9.30;8.07;;;;;;;4.41;75.08;93796.13;5004259;28;20091;-79
2023/12/15 02:50:56;;;;;;;7.30;5.97;;;;;;;4.57;74.72;93805.47;5017098;28;20125;-80
2023/12/15 02:53:21;;;;;;;8.48;7.57;;;;;;;4.38;74.44;93799.31;5020081;28;20044;-79
2023/12/15 02:55:47;;;;;;;7.95;6.88;;;;;;;4.34;74.77;93789.59;5002810;28;20557;-78
2023/12/15 02:58:12;;;;;;;82.18;44.38;;;;;;;4.52;74.38;93813.44;5019744;28;20041;-79
2023/12/15 03:00:38;;;;;;;82.97;41.83;;;;;;;4.42;75.17;93825.88;5017238;28;20073;-80
2023/12/15 03:03:04;;;;;;;140.73;70.72;;;;;;;4.40;75.15;93806.94;5015854;28;20051;-80
2023/12/15 03:05:30;;;;;;;91.40;50.15;;;;;;;4.34;75.21;93805.41;5018852;28;20038;-79
2023/12/15 03:08:02;;;;;;;37.08;23.63;;;;;;;4.48;74.60;93816.88;5020436;28;20092;-77
2023/12/15 03:10:27;;;;;;;11.13;9.25;;;;;;;4.51;74.59;93821.59;5005399;28;20029;-79
2023/12/15 03:12:53;;;;;;;7.05;6.35;;;;;;;4.58;73.89;93822.06;5017287;28;20060;-80
2023/12/15 03:15:18;;;;;;;7.25;6.45;;;;;;;4.52;74.09;93831.06;5002371;28;20053;-80
2023/12/15 03:17:44;;;;;;;6.00;4.60;;;;;;;4.45;74.19;93830.63;5016093;28;20496;-78
2023/12/15 03:20:10;;;;;;;10.85;6.43;;;;;;;4.36;74.02;93811.94;5007712;28;20060;-79
2023/12/15 03:22:36;;;;;;;7.25;5.25;;;;;;;4.51;73.68;93826.84;5020656;28;20598;-78
2023/12/15 03:25:03;;;;;;;9.15;6.07;;;;;;;4.75;73.15;93838.25;5003420;28;20053;-77
2023/12/15 03:27:28;;;;;;;11.57;8.88;;;;;;;4.59;73.11;93836.81;5019856;28;20053;-79
2023/12/15 03:29:54;;;;;;;9.35;7.93;;;;;;;4.51;73.58;93829.50;5020853;28;20566;-78
2023/12/15 03:32:20;;;;;;;7.43;6.57;;;;;;;4.60;73.53;93839.16;5021163;28;20048;-78
2023/12/15 03:34:45;;;;;;;7.38;5.28;;;;;;;4.29;73.58;93806.19;5024681;28;20022;-78
2023/12/15 03:37:11;;;;;;;8.20;6.78;;;;;;;4.51;73.03;93837.41;5010256;28;20026;-79
2023/12/15 03:39:36;;;;;;;10.23;7.80;;;;;;;4.52;73.02;93834.50;5018181;28;20029;-79
2023/12/15 03:42:06;;;;;;;8.18;5.97;;;;;;;4.54;72.26;93836.88;5005374;28;20617;-78
2023/12/15 03:44:32;;;;;;;9.30;6.53;;;;;;;4.45;72.64;93827.97;5016200;28;20086;-79
2023/12/15 03:46:58;;;;;;;9.43;7.28;;;;;;;4.10;72.80;93785.00;5021563;28;20598;-79
2023/12/15 03:49:23;;;;;;;9.15;7.18;;;;;;;4.21;72.27;93807.53;5019131;28;20504;-79
2023/12/15 03:51:48;;;;;;;10.27;7.75;;;;;;;4.46;72.98;93840.06;5028683;28;20046;-78
2023/12/15 03:54:14;;;;;;;8.55;7.13;;;;;;;4.34;73.21;93843.06;5011339;28;20479;-80
2023/12/15 03:56:40;;;;;;;9.13;7.72;;;;;;;4.52;72.54;93849.50;5002661;28;20034;-79
2023/12/15 03:59:06;;;;;;;10.32;7.93;;;;;;;4.39;73.03;93843.03;5016462;28;20018;-78
2023/12/15 04:01:31;;;;;;;10.32;7.18;;;;;;;4.49;73.60;93865.88;5004963;28;20030;-80
2023/12/15 04:03:57;;;;;;;9.73;7.32;;;;;;;4.27;74.15;93861.75;5018424;28;20313;-79
2023/12/15 04:06:23;;;;;;;9.30;6.78;;;;;;;4.25;73.92;93850.72;5010228;28;20037;-78
2023/12/15 04:08:49;;;;;;;7.70;6.25;;;;;;;4.21;74.32;93865.44;5020401;28;20128;-78
2023/12/15 04:11:17;;;;;;;8.57;7.20;;;;;;;4.42;74.12;93858.25;5019406;28;20037;-79
2023/12/15 04:13:43;;;;;;;7.93;7.13;;;;;;;4.47;73.49;93873.25;5001659;28;20025;-78
2023/12/15 04:16:09;;;;;;;11.50;8.05;;;;;;;4.28;73.90;93852.78;4996732;28;20060;-80
2023/12/15 04:18:34;;;;;;;10.30;7.55;;;;;;;4.48;74.16;93872.19;5000091;28;20025;-78
2023/12/15 04:21:03;;;;;;;8.52;7.40;;;;;;;4.45;74.54;93878.00;5017277;28;20038;-78
2023/12/15 04:23:29;;;;;;;11.65;8.30;;;;;;;4.40;74.97;93886.72;5019518;28;20038;-78
2023/12/15 04:25:57;;;;;;;10.20;8.02;;;;;;;4.55;74.33;93877.94;5017963;28;20485;-78
2023/12/15 04:28:25;;;;;;;10.45;8.32;;;;;;;4.60;74.24;93883.19;4995509;28;20100;-78
2023/12/15 04:30:50;;;;;;;14.45;8.00;;;;;;;4.64;73.95;93871.03;5016411;28;20037;-79
2023/12/15 04:33:16;;;;;;;10.30;8.40;;;;;;;4.55;73.61;93846.34;5016944;28;20042;-78
2023/12/15 04:35:41;;;;;;;9.50;8.02;;;;;;;4.28;73.60;93839.63;5018054;28;20065;-80
2023/12/15 04:38:06;;;;;;;8.55;7.30;;;;;;;4.44;73.57;93868.53;5018406;28;20049;-78
2023/12/15 04:40:32;;;;;;;9.23;7.32;;;;;;;4.61;74.18;93890.78;5017023;28;20447;-79
2023/12/15 04:42:57;;;;;;;8.20;6.97;;;;;;;3.42;74.22;93705.16;5014826;28;20041;-79
2023/12/15 04:45:26;;;;;;;9.77;8.05;;;;;;;4.48;74.54;93896.69;5014882;28;20688;-78
2023/12/15 04:47:53;;;;;;;21.70;11.27;;;;;;;4.63;73.85;93895.81;5013733;28;20045;-80
2023/12/15 04:50:20;;;;;;;10.18;7.50;;;;;;;4.54;74.16;93897.44;5015410;28;20034;-79
2023/12/15 04:52:45;;;;;;;12.40;7.25;;;;;;;4.47;73.91;93899.56;5016668;28;20017;-79
2023/12/15 04:55:11;;;;;;;9.07;6.78;;;;;;;4.65;73.04;93917.38;5017344;28;20931;-78
2023/12/15 04:57:36;;;;;;;7.53;6.45;;;;;;;4.25;73.91;93887.56;5019520;28;20045;-79
2023/12/15 05:00:02;;;;;;;11.05;7.20;;;;;;;4.46;74.46;93919.06;5002629;28;20040;-80
2023/12/15 05:02:27;;;;;;;7.90;7.10;;;;;;;4.27;74.09;93903.88;5018639;28;20029;-79
2023/12/15 05:04:53;;;;;;;8.80;6.28;;;;;;;4.21;73.52;93894.41;5019152;28;20044;-78
2023/12/15 05:07:18;;;;;;;5.88;5.28;;;;;;;4.19;73.38;93899.19;5016933;28;20088;-79
2023/12/15 05:09:47;;;;;;;7.53;6.32;;;;;;;4.45;73.48;93906.97;5017709;28;20053;-79
2023/12/15 05:12:12;;;;;;;7.78;6.18;;;;;;;4.49;72.93;93903.53;5016230;28;20026;-78
2023/12/15 05:14:38;;;;;;;6.93;5.10;;;;;;;4.40;72.26;93896.47;5018223;28;20736;-78
2023/12/15 05:17:03;;;;;;;6.95;4.93;;;;;;;4.52;71.99;93923.25;5019180;28;20031;-78
2023/12/15 05:19:29;;;;;;;6.70;5.95;;;;;;;4.38;72.28;93909.91;5013337;28;20464;-78
2023/12/15 05:21:54;;;;;;;7.32;5.20;;;;;;;4.42;72.05;93904.88;4998352;28;20105;-79
2023/12/15 05:24:20;;;;;;;6.10;4.68;;;;;;;4.19;72.83;93906.28;5013405;28;20038;-79
2023/12/15 05:26:45;;;;;;;5.70;4.97;;;;;;;4.46;72.00;93924.34;5016923;28;20046;-77
2023/12/15 05:29:11;;;;;;;7.00;5.57;;;;;;;4.42;72.23;93939.09;5016801;28;20192;-79
2023/12/15 05:31:36;;;;;;;7.68;5.85;;;;;;;4.37;72.41;93925.97;5011585;28;20025;-79
2023/12/15 05:34:01;;;;;;;8.05;5.90;;;;;;;4.50;71.81;93941.94;5017943;28;20041;-77
2023/12/15 05:36:27;;;;;;;7.82;5.72;;;;;;;4.17;72.72;93938.13;5002628;28;20053;-78
2023/12/15 05:38:53;;;;;;;6.15;5.05;;;;;;;4.16;72.23;93920.75;5000164;28;20064;-78
2023/12/15 05:41:18;;;;;;;6.82;5.60;;;;;;;4.25;71.83;93921.78;5015715;28;20029;-79
2023/12/15 05:43:44;;;;;;;8.20;6.03;;;;;;;4.17;72.97;93948.66;5015227;28;20075;-78
2023/12/15 05:46:09;;;;;;;7.32;6.10;;;;;;;4.24;72.43;93946.53;5014853;28;20045;-79
2023/12/15 05:48:37;;;;;;;6.13;4.97;;;;;;;4.37;72.54;93962.84;5014254;28;20038;-77
2023/12/15 05:51:04;;;;;;;6.85;5.78;;;;;;;4.33;72.86;93964.44;4999078;28;20156;-78
2023/12/15 05:53:29;;;;;;;6.57;5.60;;;;;;;4.41;72.63;93971.75;5014737;28;20061;-78
2023/12/15 05:55:55;;;;;;;7.68;5.97;;;;;;;4.40;72.18;93971.00;4995130;28;20622;-79
2023/12/15 05:58:20;;;;;;;6.72;5.95;;;;;;;4.33;72.64;93967.84;5012753;28;21034;-78
2023/12/15 06:00:45;;;;;;;8.52;5.80;;;;;;;4.40;72.47;93972.84;5015740;28;20041;-79
2023/12/15 06:03:14;;;;;;;7.30;5.68;;;;;;;4.42;72.58;93973.34;4998318;28;20034;-78
2023/12/15 06:05:39;;;;;;;7.70;6.20;;;;;;;4.31;71.76;93948.91;5017157;28;20059;-79
2023/12/15 06:08:05;;;;;;;7.20;6.15;;;;;;;4.50;71.97;93980.69;4993062;28;20029;-82
2023/12/15 06:10:30;;;;;;;8.85;5.60;;;;;;;4.47;71.74;93978.59;5016193;28;20087;-80
2023/12/15 06:12:56;;;;;;;8.48;6.47;;;;;;;4.51;71.99;93987.50;5015620;28;20029;-79
2023/12/15 06:15:21;;;;;;;8.32;6.03;;;;;;;4.41;71.27;93980.44;5013905;28;20053;-78
2023/12/15 06:17:47;;;;;;;9.10;7.95;;;;;;;4.43;71.97;93980.97;5015094;28;20094;-78
2023/12/15 06:20:13;;;;;;;9.48;7.35;;;;;;;4.41;71.90;93987.56;5010493;28;20500;-78
2023/12/15 06:22:38;;;;;;;8.85;7.60;;;;;;;4.67;71.60;93994.28;5015809;28;20068;-77
2023/12/15 06:25:04;;;;;;;9.45;7.10;;;;;;;4.59;70.92;93974.59;5015246;28;20034;-79
2023/12/15 06:27:33;;;;;;;8.45;7.10;;;;;;;4.55;70.95;93975.41;4996142;28;20049;-79
2023/12/15 06:29:59;;;;;;;10.13;7.95;;;;;;;4.65;70.23;93978.75;5015561;28;20057;-77
2023/12/15 06:32:24;;;;;;;10.00;7.65;;;;;;;4.72;71.08;94001.38;4997903;28;20768;-78
2023/12/15 06:34:49;;;;;;;9.20;7.00;;;;;;;4.70;71.40;94004.28;5015420;28;20052;-79
2023/12/15 06:37:15;;;;;;;9.23;7.75;;;;;;;4.46;71.67;94001.50;5014845;28;20057;-77
2023/12/15 06:39:40;;;;;;;11.98;8.00;;;;;;;4.57;72.25;94010.16;5005160;28;20060;-78
2023/12/15 06:42:06;;;;;;;13.90;9.18;;;;;;;4.53;72.46;94009.13;5019016;28;20095;-79
2023/12/15 06:44:31;;;;;;;12.82;8.68;;;;;;;4.58;72.81;94009.88;5015750;28;20033;-78
2023/12/15 06:46:57;;;;;;;12.40;8.73;;;;;;;4.81;71.63;94016.34;5022902;28;20025;-79
2023/12/15 06:49:30;;;;;;;7.97;6.57;;;;;;;4.77;71.52;94010.06;5021938;28;20025;-79
2023/12/15 06:51:57;;;;;;;9.10;7.55;;;;;;;4.75;71.28;94022.69;5025531;28;20030;-79
2023/12/15 06:54:23;;;;;;;10.02;7.32;;;;;;;4.43;72.84;94030.22;5022503;28;20104;-79
2023/12/15 06:56:48;;;;;;;11.00;8.05;;;;;;;4.69;72.69;94044.88;5003697;28;20685;-79
2023/12/15 06:59:14;;;;;;;10.80;7.80;;;;;;;4.78;71.72;94042.47;5019269;28;20052;-79
2023/12/15 07:01:43;;;;;;;12.45;8.45;;;;;;;4.86;71.46;94045.31;5022333;28;20035;-78
2023/12/15 07:04:11;;;;;;;9.20;7.10;;;;;;;4.61;71.70;94027.00;5011410;28;20097;-79
2023/12/15 07:06:37;;;;;;;11.60;8.65;;;;;;;4.75;71.94;94059.59;5007687;28;20033;-78
2023/12/15 07:09:02;;;;;;;8.68;6.45;;;;;;;4.74;72.12;94058.03;5002265;28;20044;-79
2023/12/15 07:11:28;;;;;;;10.73;7.60;;;;;;;4.81;71.96;94055.88;5014432;28;20045;-79
2023/12/15 07:13:53;;;;;;;12.55;7.30;;;;;;;4.68;72.13;94054.63;4996442;28;20034;-79
2023/12/15 07:16:18;;;;;;;7.35;6.00;;;;;;;4.80;71.60;94064.84;5006901;28;20512;-78
2023/12/15 07:18:45;;;;;;;7.43;5.60;;;;;;;4.52;72.89;94054.94;5016336;28;20041;-80
2023/12/15 07:21:11;;;;;;;7.55;5.93;;;;;;;4.77;72.22;94065.38;5006820;28;20053;-79
2023/12/15 07:23:37;;;;;;;9.13;6.65;;;;;;;4.75;71.38;94062.22;4994004;28;20129;-80
2023/12/15 07:26:04;;;;;;;10.98;8.00;;;;;;;4.70;71.47;94054.34;5012827;28;20146;-79
2023/12/15 07:28:29;;;;;;;8.48;6.85;;;;;;;4.61;71.92;94040.94;5008880;28;20084;-79
2023/12/15 07:30:55;;;;;;;9.70;5.85;;;;;;;4.72;70.65;94054.06;5013896;28;20038;-79
2023/12/15 07:33:22;;;;;;;23.92;13.63;;;;;;;4.80;70.97;94069.31;5005632;28;20116;-79
2023/12/15 07:35:47;;;;;;;19.55;11.20;;;;;;;4.82;71.44;94075.13;5003210;28;20056;-79
2023/12/15 07:38:13;;;;;;;19.90;12.00;;;;;;;4.80;71.53;94083.28;5009471;28;20038;-77
2023/12/15 07:40:40;;;;;;;19.20;13.45;;;;;;;4.83;71.61;94072.22;5007701;28;20025;-79
2023/12/15 07:43:05;;;;;;;11.90;8.50;;;;;;;4.61;72.02;94062.03;5006874;28;20050;-80
2023/12/15 07:45:31;;;;;;;18.00;11.45;;;;;;;4.00;72.69;93974.53;5006172;28;20064;-79
2023/12/15 07:47:57;;;;;;;12.32;9.10;;;;;;;4.68;72.70;94086.25;5002227;28;20240;-79
2023/12/15 07:50:23;;;;;;;13.15;9.70;;;;;;;4.76;72.68;94095.44;4989140;28;20042;-78
2023/12/15 07:52:49;;;;;;;14.75;9.20;;;;;;;4.83;72.15;94093.31;5002373;28;20026;-79
2023/12/15 07:55:15;;;;;;;8.27;7.10;;;;;;;4.76;71.20;94058.53;5010167;28;20162;-78
2023/12/15 07:57:42;;;;;;;8.90;6.82;;;;;;;4.84;70.60;94073.81;4998325;28;21252;-78
2023/12/15 08:00:11;;;;;;;9.05;8.15;;;;;;;5.02;70.54;94104.81;5014641;28;20091;-78
2023/12/15 08:02:36;;;;;;;7.80;5.28;;;;;;;4.69;72.23;94108.13;5017681;28;20042;-78
2023/12/15 08:05:02;;;;;;;8.90;6.88;;;;;;;4.72;72.33;94112.84;5016915;28;20096;-79
2023/12/15 08:07:27;;;;;;;7.18;5.68;;;;;;;4.66;72.26;94108.63;5021169;28;20530;-77
2023/12/15 08:09:53;;;;;;;7.40;6.00;;;;;;;4.41;71.72;94056.03;5029553;28;20857;-77
2023/12/15 08:12:18;;;;;;;5.45;4.82;;;;;;;4.61;72.12;94127.09;5032663;28;20102;-80
2023/12/15 08:14:43;;;;;;;6.82;5.25;;;;;;;4.61;72.38;94132.34;5027096;28;20049;-79
2023/12/15 08:17:09;;;;;;;6.63;4.90;;;;;;;4.82;72.35;94147.06;5027253;28;20030;-80
2023/12/15 08:19:34;;;;;;;5.05;4.40;;;;;;;4.86;72.25;94150.72;5023785;28;20034;-80
2023/12/15 08:22:00;;;;;;;5.47;4.45;;;;;;;4.80;71.73;94122.03;5026678;28;20048;-80
2023/12/15 08:24:26;;;;;;;6.20;5.15;;;;;;;5.02;71.22;94144.34;5023362;28;20038;-80
2023/12/15 08:26:53;;;;;;;5.68;4.75;;;;;;;5.12;70.72;94141.69;5025641;28;20023;-79
2023/12/15 08:29:20;;;;;;;5.05;4.55;;;;;;;5.06;70.24;94123.50;5027342;28;20029;-80
2023/12/15 08:31:45;;;;;;;5.22;4.38;;;;;;;5.22;70.53;94153.25;5025500;28;20510;-79
2023/12/15 08:34:12;;;;;;;4.20;3.70;;;;;;;5.20;70.31;94145.59;5026418;28;20089;-79
2023/12/15 08:36:38;;;;;;;8.73;5.50;;;;;;;5.01;70.26;94132.22;5025202;28;20040;-81
2023/12/15 08:39:04;;;;;;;8.48;5.63;;;;;;;5.08;70.46;94130.09;5009364;28;20052;-80
2023/12/15 08:41:30;;;;;;;9.63;5.05;;;;;;;5.21;70.18;94147.16;5027121;28;20041;-79
2023/12/15 08:43:55;;;;;;;9.23;4.88;;;;;;;5.19;69.33;94138.72;5021275;28;20036;-80
2023/12/15 08:46:20;;;;;;;8.20;5.50;;;;;;;5.31;69.78;94146.34;5026872;28;20099;-79
2023/12/15 08:48:46;;;;;;;5.80;4.35;;;;;;;5.40;69.29;94144.69;5022426;28;20030;-80
2023/12/15 08:51:11;;;;;;;6.65;5.50;;;;;;;5.40;69.25;94147.34;5025894;28;20034;-80
2023/12/15 08:53:37;;;;;;;7.43;5.55;;;;;;;5.54;69.01;94151.75;5006417;28;20037;-80
2023/12/15 08:56:02;;;;;;;6.57;4.55;;;;;;;5.51;68.91;94135.66;5004223;28;20025;-79
2023/12/15 08:58:28;;;;;;;8.68;6.07;;;;;;;5.44;69.26;94129.91;5022090;28;20014;-79
2023/12/15 09:00:55;;;;;;;11.45;7.97;;;;;;;5.41;68.64;94141.78;5021875;28;20353;-80
2023/12/15 09:03:28;;;;;;;19.02;13.27;;;;;;;5.62;68.51;94168.06;5021535;28;20032;-77
2023/12/15 09:05:54;;;;;;;25.38;15.73;;;;;;;5.55;68.81;94153.31;5009125;28;20080;-80
2023/12/15 09:08:20;;;;;;;24.00;16.63;;;;;;;5.60;69.09;94147.22;5008870;28;20038;-78
2023/12/15 09:10:50;;;;;;;31.02;21.75;;;;;;;5.59;69.17;94135.09;5022270;28;20044;-80
2023/12/15 09:13:19;;;;;;;15.15;10.73;;;;;;;5.72;68.33;94146.91;5020372;28;20044;-80
2023/12/15 09:15:44;;;;;;;23.05;16.77;;;;;;;5.69;68.28;94136.88;5018515;28;20049;-79
2023/12/15 09:18:10;;;;;;;24.67;15.55;;;;;;;5.63;69.35;94140.63;5027459;28;20947;-79
2023/12/15 09:20:35;;;;;;;23.73;18.02;;;;;;;5.64;69.55;94148.25;5008297;28;20086;-80
2023/12/15 09:23:09;;;;;;;19.52;15.10;;;;;;;5.41;69.57;94131.25;5010232;28;20033;-79
2023/12/15 09:25:34;;;;;;;18.40;14.98;;;;;;;5.58;69.60;94147.50;5027129;28;20073;-79
2023/12/15 09:28:03;;;;;;;14.52;11.82;;;;;;;5.56;69.35;94144.34;5026342;28;20588;-80
2023/12/15 09:30:29;;;;;;;19.95;16.05;;;;;;;5.37;69.57;94093.28;5020587;28;20066;-79
2023/12/15 09:32:54;;;;;;;22.13;17.33;;;;;;;5.62;69.35;94141.69;5025734;28;20037;-80
2023/12/15 09:35:19;;;;;;;26.00;18.35;;;;;;;5.50;69.44;94136.72;5022295;28;20901;-78
2023/12/15 09:37:45;;;;;;;27.42;19.10;;;;;;;5.45;68.51;94127.00;5008288;28;21407;-79
2023/12/15 09:40:13;;;;;;;27.65;19.73;;;;;;;5.65;69.05;94147.19;5023105;28;20048;-80
2023/12/15 09:42:39;;;;;;;16.50;12.00;;;;;;;5.34;69.72;94108.84;5017190;28;20045;-79
2023/12/15 09:45:05;;;;;;;20.63;14.38;;;;;;;5.39;69.87;94106.19;5021134;28;20061;-79
2023/12/15 09:47:31;;;;;;;30.33;19.75;;;;;;;5.62;69.64;94123.22;5018320;28;20488;-80
2023/12/15 09:50:02;;;;;;;29.33;21.20;;;;;;;5.66;69.54;94135.59;5020132;28;20044;-80
2023/12/15 09:52:32;;;;;;;35.15;22.85;;;;;;;5.72;69.61;94144.25;5017912;28;20021;-78
2023/12/15 09:54:58;;;;;;;20.20;14.23;;;;;;;5.75;68.24;94136.56;5019001;28;20046;-80
2023/12/15 09:57:24;;;;;;;15.75;12.35;;;;;;;5.43;68.94;94101.97;5020627;28;20030;-80
2023/12/15 09:59:50;;;;;;;42.20;26.27;;;;;;;5.69;69.02;94145.56;5000560;28;20037;-79
2023/12/15 10:02:16;;;;;;;37.03;22.25;;;;;;;5.83;69.54;94154.44;5021245;28;20649;-78
2023/12/15 10:04:42;;;;;;;32.05;19.52;;;;;;;5.93;69.23;94138.53;5026033;28;20108;-79
2023/12/15 10:07:07;;;;;;;24.10;16.27;;;;;;;5.78;68.54;94099.06;5021070;28;20121;-79
2023/12/15 10:09:41;;;;;;;23.90;16.95;;;;;;;6.04;68.23;94133.19;5014478;28;20077;-80
2023/12/15 10:12:12;;;;;;;21.35;14.98;;;;;;;5.94;68.68;94137.50;5008370;28;20788;-79
2023/12/15 10:14:38;;;;;;;23.65;15.25;;;;;;;6.07;68.65;94154.53;4999241;28;20036;-80
2023/12/15 10:17:09;;;;;;;21.60;15.90;;;;;;;6.02;68.06;94145.91;5017599;28;20030;-80
2023/12/15 10:19:34;;;;;;;13.95;9.52;;;;;;;5.86;68.77;94151.28;5017749;28;20030;-80
2023/12/15 10:22:02;;;;;;;20.48;13.02;;;;;;;5.99;69.06;94166.50;5020749;28;21014;-80
2023/12/15 10:24:27;;;;;;;20.77;14.18;;;;;;;6.13;68.20;94163.22;5019682;28;20038;-80
2023/12/15 10:26:53;;;;;;;21.73;15.07;;;;;;;6.22;66.71;94157.09;5009378;28;20497;-80
2023/12/15 10:29:20;;;;;;;24.08;15.48;;;;;;;6.21;67.35;94165.31;5020853;28;20037;-79
2023/12/15 10:31:45;;;;;;;20.65;14.13;;;;;;;6.18;66.78;94155.28;5021764;28;20568;-80
2023/12/15 10:34:14;;;;;;;35.30;21.83;;;;;;;6.09;66.91;94141.06;5017460;28;20037;-80
2023/12/15 10:36:44;;;;;;;29.13;20.60;;;;;;;6.24;67.40;94170.81;5018481;28;20033;-79
2023/12/15 10:39:12;;;;;;;23.02;14.75;;;;;;;5.69;69.34;94150.84;5020321;28;20041;-77
2023/12/15 10:41:39;;;;;;;20.98;14.05;;;;;;;5.96;69.32;94169.69;4987056;28;20801;-77
2023/12/15 10:44:07;;;;;;;46.60;22.10;;;;;;;6.07;68.74;94169.63;5012229;28;20026;-78
2023/12/15 10:46:33;;;;;;;25.83;15.32;;;;;;;6.20;68.31;94169.00;5015331;28;20052;-78
2023/12/15 10:49:01;;;;;;;24.88;14.35;;;;;;;5.91;68.52;94158.38;5009507;28;20064;-80
2023/12/15 10:51:28;;;;;;;16.08;11.13;;;;;;;5.91;68.79;94138.03;4995955;28;20099;-81
2023/12/15 10:53:54;;;;;;;15.00;9.43;;;;;;;6.25;67.55;94174.25;5019172;28;20061;-78
2023/12/15 10:56:21;;;;;;;8.88;6.05;;;;;;;6.15;66.16;94166.38;5001819;28;20488;-78
2023/12/15 10:58:47;;;;;;;18.48;9.20;;;;;;;6.17;64.74;94182.75;5022090;28;20063;-78
2023/12/15 11:01:14;;;;;;;6.47;5.32;;;;;;;6.02;64.68;94183.63;5021927;28;20081;-80
2023/12/15 11:03:41;;;;;;;9.57;6.70;;;;;;;5.64;66.02;94164.06;5010625;28;20140;-79
2023/12/15 11:06:07;;;;;;;11.25;6.80;;;;;;;5.84;66.15;94171.09;5017240;28;20037;-79
2023/12/15 11:08:33;;;;;;;12.13;7.35;;;;;;;5.89;66.25;94185.03;5019272;28;20045;-77
2023/12/15 11:11:04;;;;;;;8.45;6.20;;;;;;;5.97;66.16;94183.66;5011240;28;20032;-78
2023/12/15 11:13:48;;;;;;;6.78;5.43;;;;;;;6.11;65.52;94183.84;5005883;28;20087;-80
2023/12/15 11:16:14;;;;;;;8.52;6.35;;;;;;;6.01;64.99;94171.50;4992642;28;20152;-79
2023/12/15 11:18:42;;;;;;;6.70;5.35;;;;;;;5.94;65.54;94182.38;5000173;28;20521;-78
2023/12/15 11:21:10;;;;;;;9.77;7.35;;;;;;;5.90;64.66;94181.34;5011785;28;20117;-80
2023/12/15 11:23:55;;;;;;;9.18;7.28;;;;;;;5.77;65.57;94171.41;5012921;28;20096;-80
2023/12/15 11:26:24;;;;;;;10.60;7.10;;;;;;;6.02;65.95;94191.53;4990702;28;20048;-79
2023/12/15 11:28:50;;;;;;;34.78;17.63;;;;;;;6.02;65.30;94190.78;5018459;28;20037;-78
2023/12/15 11:31:24;;;;;;;24.67;12.85;;;;;;;5.92;64.87;94163.38;5024052;28;20491;-79